Time;durP1;ratioP1;P1;durP2;ratioP2;P2;SDS_P1;SDS_P2;PMS_P1;PMS_P2;Temp;Humidity;BMP_temperature;BMP_pressure;BME280_temperature;BME280_humidity;BME280_pressure;Samples;Min_cycle;Max_cycle;Signal;HPM_P1;HPM_P2
2024/01/09 00:02:22;;;;;;;12.90;4.70;;;;;;;-11.34;45.38;101895.64;105447;1254;60616;-54
2024/01/09 00:04:50;;;;;;;12.10;3.80;;;;;;;-11.30;45.38;101897.50;105411;1259;72660;-50
2024/01/09 00:07:17;;;;;;;7.60;2.90;;;;;;;-11.27;44.95;101900.32;105278;1260;68879;-51
2024/01/09 00:09:45;;;;;;;12.70;3.20;;;;;;;-11.22;45.01;101909.45;105295;1254;72657;-51
2024/01/09 00:12:13;;;;;;;11.00;3.90;;;;;;;-11.21;45.16;101907.63;105323;1254;60469;-51
2024/01/09 00:14:40;;;;;;;7.90;4.60;;;;;;;-11.17;45.07;101901.83;105533;1254;60585;-50
2024/01/09 00:17:08;;;;;;;8.60;2.80;;;;;;;-11.17;44.86;101908.77;105341;1254;73848;-50
2024/01/09 00:19:36;;;;;;;8.70;4.00;;;;;;;-11.17;44.68;101907.42;105479;1257;69958;-51
2024/01/09 00:22:04;;;;;;;10.10;2.90;;;;;;;-11.19;44.29;101905.16;105355;1260;71287;-51
2024/01/09 00:24:31;;;;;;;9.90;2.50;;;;;;;-11.15;44.42;101913.59;105676;1255;61636;-50
2024/01/09 00:26:59;;;;;;;6.70;1.60;;;;;;;-11.16;44.33;101921.86;105285;1254;61174;-51
2024/01/09 00:29:27;;;;;;;7.40;3.20;;;;;;;-11.20;44.29;101926.80;105791;1255;73936;-52
2024/01/09 00:31:55;;;;;;;7.60;2.30;;;;;;;-11.24;44.12;101923.79;105847;1260;68315;-50
2024/01/09 00:34:22;;;;;;;10.10;3.50;;;;;;;-11.27;44.30;101920.97;106141;1254;70690;-51
2024/01/09 00:36:50;;;;;;;7.60;2.90;;;;;;;-11.31;44.02;101926.77;105252;1255;61618;-51
2024/01/09 00:39:18;;;;;;;4.00;1.70;;;;;;;-11.26;44.13;101927.29;105267;1255;60738;-51
2024/01/09 00:41:45;;;;;;;8.80;2.70;;;;;;;-11.28;43.87;101927.55;105356;1254;73882;-51
2024/01/09 00:44:13;;;;;;;7.80;2.20;;;;;;;-11.28;44.10;101933.30;105422;1257;70054;-51
2024/01/09 00:46:40;;;;;;;7.50;2.40;;;;;;;-11.28;44.29;101934.33;105323;1254;71408;-51
2024/01/09 00:49:08;;;;;;;9.50;3.20;;;;;;;-11.27;44.75;101937.23;105471;1259;60564;-51
2024/01/09 00:51:36;;;;;;;6.60;3.20;;;;;;;-11.22;44.88;101936.08;105318;1254;60658;-50
2024/01/09 00:54:04;;;;;;;10.70;3.30;;;;;;;-11.19;45.03;101937.02;105572;1254;72718;-51
2024/01/09 00:56:31;;;;;;;8.60;2.90;;;;;;;-11.13;45.11;101934.84;105403;1254;70642;-52
2024/01/09 00:58:59;;;;;;;9.80;2.10;;;;;;;-11.09;45.05;101936.49;105838;1260;71013;-52
2024/01/09 01:01:27;;;;;;;8.70;2.60;;;;;;;-11.05;45.26;101933.07;105837;1259;62105;-53
2024/01/09 01:03:54;;;;;;;8.70;3.20;;;;;;;-11.01;45.19;101931.34;105317;1254;60393;-51
2024/01/09 01:06:22;;;;;;;6.80;2.00;;;;;;;-10.98;45.49;101929.21;105362;1254;71997;-51
2024/01/09 01:08:50;;;;;;;6.20;1.60;;;;;;;-10.92;45.72;101931.63;105457;1254;68460;-51
2024/01/09 01:11:17;;;;;;;10.10;3.70;;;;;;;-10.84;45.87;101928.16;105348;1260;72759;-52
2024/01/09 01:13:45;;;;;;;9.50;3.70;;;;;;;-10.75;45.85;101927.77;105565;1257;60575;-52
2024/01/09 01:16:13;;;;;;;11.00;3.30;;;;;;;-10.66;45.93;101924.49;105384;1259;60560;-52
2024/01/09 01:18:40;;;;;;;11.20;3.20;;;;;;;-10.61;46.17;101927.55;105354;1260;72856;-53
2024/01/09 01:21:08;;;;;;;12.60;5.10;;;;;;;-10.57;46.62;101935.95;105245;1260;69552;-52
2024/01/09 01:23:36;;;;;;;8.60;2.80;;;;;;;-10.59;46.97;101936.06;106393;1259;73788;-51
2024/01/09 01:26:03;;;;;;;12.30;4.40;;;;;;;-10.53;47.48;101948.81;105326;1254;60428;-52
2024/01/09 01:28:31;;;;;;;7.20;3.10;;;;;;;-10.51;48.07;101951.43;105651;1254;60505;-52
2024/01/09 01:30:59;;;;;;;7.70;3.00;;;;;;;-10.47;48.59;101950.55;105278;1254;73873;-53
2024/01/09 01:33:26;;;;;;;9.40;3.40;;;;;;;-10.42;48.95;101948.64;105315;1254;70894;-52
2024/01/09 01:35:54;;;;;;;9.60;2.60;;;;;;;-10.42;49.14;101952.56;106012;1254;72658;-51
2024/01/09 01:38:22;;;;;;;9.20;2.70;;;;;;;-10.43;49.30;101957.09;106152;1254;60866;-52
2024/01/09 01:40:50;;;;;;;11.20;3.90;;;;;;;-10.46;49.50;101955.48;105506;1255;60536;-51
2024/01/09 01:43:17;;;;;;;11.40;2.60;;;;;;;-10.47;49.55;101960.54;105399;1254;73824;-52
2024/01/09 01:45:45;;;;;;;7.80;3.40;;;;;;;-10.43;49.56;101961.70;105469;1254;70055;-51
2024/01/09 01:48:13;;;;;;;14.40;4.20;;;;;;;-10.45;49.78;101959.60;105524;1254;72673;-52
2024/01/09 01:50:41;;;;;;;10.40;3.10;;;;;;;-10.47;49.90;101962.41;105387;1256;61082;-53
2024/01/09 01:53:09;;;;;;;9.70;3.30;;;;;;;-10.50;49.79;101966.90;105319;1259;60531;-51
2024/01/09 01:55:37;;;;;;;5.30;1.90;;;;;;;-10.50;49.66;101964.52;105416;1257;71700;-52
2024/01/09 01:58:04;;;;;;;10.40;3.40;;;;;;;-10.51;49.69;101960.94;105466;1257;70543;-52
2024/01/09 02:00:32;;;;;;;13.70;3.70;;;;;;;-10.47;49.74;101963.09;105329;1254;70246;-52
2024/01/09 02:02:59;;;;;;;6.60;2.40;;;;;;;-10.42;49.59;101962.05;105374;1254;60466;-51
2024/01/09 02:05:27;;;;;;;4.70;2.10;;;;;;;-10.38;49.56;101964.04;105295;1260;60368;-52
2024/01/09 02:07:55;;;;;;;8.10;2.30;;;;;;;-10.35;49.45;101967.89;105268;1254;73065;-52
2024/01/09 02:10:23;;;;;;;8.80;2.10;;;;;;;-10.30;49.19;101966.65;105291;1260;70088;-52
2024/01/09 02:12:50;;;;;;;9.80;3.30;;;;;;;-10.29;48.74;101965.64;105971;1255;72952;-52
2024/01/09 02:15:18;;;;;;;11.30;2.60;;;;;;;-10.34;48.27;101965.70;105324;1259;60941;-51
2024/01/09 02:17:46;;;;;;;7.40;2.60;;;;;;;-10.34;48.13;101971.14;105290;1258;60423;-52
2024/01/09 02:20:14;;;;;;;12.40;3.30;;;;;;;-10.36;48.00;101973.27;105168;1254;72112;-52
2024/01/09 02:22:41;;;;;;;7.00;2.70;;;;;;;-10.35;47.89;101975.52;105123;1259;69189;-51
2024/01/09 02:25:09;;;;;;;11.70;2.30;;;;;;;-10.35;47.95;101971.77;105214;1257;73105;-52
2024/01/09 02:27:59;;;;;;;5.40;2.60;;;;;;;-10.31;47.86;101973.23;105295;1254;60521;-52
2024/01/09 02:30:27;;;;;;;11.00;3.40;;;;;;;-10.30;47.72;101979.39;105801;1254;60555;-51
2024/01/09 02:32:54;;;;;;;9.10;3.00;;;;;;;-10.29;47.18;101981.61;105283;1259;73857;-52
2024/01/09 02:35:22;;;;;;;7.40;2.70;;;;;;;-10.28;46.89;101985.20;105877;1256;69394;-52
2024/01/09 02:37:50;;;;;;;7.20;2.00;;;;;;;-10.28;46.89;101978.42;105463;1257;72635;-51
2024/01/09 02:40:17;;;;;;;6.40;2.00;;;;;;;-10.28;46.80;101978.58;105479;1257;60503;-52
2024/01/09 02:42:46;;;;;;;5.30;2.00;;;;;;;-10.25;46.70;101983.41;105405;1254;60440;-52
2024/01/09 02:45:14;;;;;;;4.80;1.20;;;;;;;-10.25;46.73;101985.13;105318;1253;74136;-52
2024/01/09 02:47:42;;;;;;;8.60;2.70;;;;;;;-10.24;46.59;101984.45;105321;1260;68236;-53
2024/01/09 02:50:10;;;;;;;5.30;1.30;;;;;;;-10.25;46.54;101987.14;105510;1254;72687;-51
2024/01/09 02:52:37;;;;;;;15.10;3.60;;;;;;;-10.29;46.33;101983.65;105301;1255;61288;-52
2024/01/09 02:55:05;;;;;;;8.20;2.60;;;;;;;-10.33;46.30;101977.96;105265;1255;60668;-52
2024/01/09 02:57:32;;;;;;;12.30;3.60;;;;;;;-10.37;46.24;101982.41;105280;1253;73772;-53
2024/01/09 03:00:00;;;;;;;5.70;1.30;;;;;;;-10.34;46.25;101981.15;105700;1254;70075;-52
2024/01/09 03:02:28;;;;;;;11.20;2.20;;;;;;;-10.33;45.99;101981.00;105282;1254;71842;-52
2024/01/09 03:04:55;;;;;;;7.20;2.40;;;;;;;-10.38;45.80;101980.68;105435;1254;60539;-52
2024/01/09 03:07:23;;;;;;;7.10;2.00;;;;;;;-10.40;45.85;101978.06;105324;1259;60403;-52
2024/01/09 03:09:52;;;;;;;3.80;1.20;;;;;;;-10.46;45.55;101977.02;105324;1254;73946;-53
2024/01/09 03:12:19;;;;;;;6.30;2.50;;;;;;;-10.59;45.33;101974.59;106174;1254;69332;-51
2024/01/09 03:14:47;;;;;;;4.40;1.30;;;;;;;-10.75;45.17;101975.25;105379;1254;72954;-51
2024/01/09 03:17:14;;;;;;;9.50;2.10;;;;;;;-10.91;45.29;101978.79;105279;1254;61647;-51
2024/01/09 03:19:43;;;;;;;5.60;1.50;;;;;;;-11.07;45.37;101976.88;105324;1258;60377;-51
2024/01/09 03:22:10;;;;;;;6.90;1.60;;;;;;;-11.27;45.57;101980.29;105462;1256;72553;-52
2024/01/09 03:24:38;;;;;;;7.70;2.30;;;;;;;-11.40;45.81;101981.67;105609;1256;70290;-52
2024/01/09 03:27:05;;;;;;;7.00;1.90;;;;;;;-11.46;45.91;101981.64;105254;1256;72926;-52
2024/01/09 03:29:33;;;;;;;11.00;2.80;;;;;;;-11.51;46.07;101976.90;105116;1255;61689;-51
2024/01/09 03:32:01;;;;;;;5.60;1.60;;;;;;;-11.52;46.08;101975.68;105246;1258;60447;-51
2024/01/09 03:34:28;;;;;;;4.70;0.90;;;;;;;-11.54;46.03;101977.30;105285;1254;73755;-50
2024/01/09 03:36:56;;;;;;;4.90;1.00;;;;;;;-11.58;46.05;101976.47;105291;1254;70601;-50
2024/01/09 03:39:23;;;;;;;10.90;2.60;;;;;;;-11.62;46.12;101977.88;105315;1254;72958;-51
2024/01/09 03:41:52;;;;;;;13.20;2.20;;;;;;;-11.65;46.07;101976.19;105904;1254;61604;-51
2024/01/09 03:44:19;;;;;;;5.00;1.70;;;;;;;-11.67;46.09;101973.94;105955;1256;60361;-50
2024/01/09 03:46:47;;;;;;;7.20;1.30;;;;;;;-11.67;46.37;101978.48;105314;1253;73174;-50
2024/01/09 03:49:15;;;;;;;4.60;2.10;;;;;;;-11.70;46.37;101977.91;105293;1254;69966;-50
2024/01/09 03:51:42;;;;;;;9.70;6.90;;;;;;;-11.71;46.36;101974.30;105446;1254;70975;-50
2024/01/09 03:54:10;;;;;;;5.40;1.60;;;;;;;-11.72;46.34;101978.67;105337;1254;61802;-51
2024/01/09 03:56:38;;;;;;;4.80;1.40;;;;;;;-11.74;46.34;101978.08;105697;1254;60531;-50
2024/01/09 03:59:06;;;;;;;15.40;4.20;;;;;;;-11.76;46.31;101974.96;105300;1253;73454;-51
2024/01/09 04:01:33;;;;;;;6.10;1.50;;;;;;;-11.79;46.29;101973.17;105428;1257;69262;-50
2024/01/09 04:04:01;;;;;;;6.40;1.40;;;;;;;-11.78;46.29;101974.39;105318;1259;72780;-50
2024/01/09 04:06:28;;;;;;;5.20;1.90;;;;;;;-11.79;46.24;101977.08;105410;1258;60689;-51
2024/01/09 04:08:56;;;;;;;4.90;1.60;;;;;;;-11.78;46.16;101977.42;106012;1255;60501;-50
2024/01/09 04:11:24;;;;;;;4.70;1.30;;;;;;;-11.81;46.06;101975.97;105309;1254;73787;-53
2024/01/09 04:13:52;;;;;;;8.40;2.00;;;;;;;-11.86;46.11;101979.36;105318;1253;70731;-54
2024/01/09 04:16:19;;;;;;;9.00;2.30;;;;;;;-11.88;46.18;101978.92;105949;1256;72722;-52
2024/01/09 04:18:47;;;;;;;13.70;3.10;;;;;;;-11.90;46.16;101978.18;105268;1253;60539;-52
2024/01/09 04:21:15;;;;;;;4.80;1.40;;;;;;;-11.93;46.13;101984.02;105319;1259;60361;-53
2024/01/09 04:23:42;;;;;;;9.00;2.10;;;;;;;-11.94;46.17;101987.86;105395;1254;73794;-53
2024/01/09 04:26:10;;;;;;;10.50;2.00;;;;;;;-11.94;46.24;101992.11;105607;1255;68908;-50
2024/01/09 04:28:38;;;;;;;7.00;3.00;;;;;;;-11.91;46.28;101992.71;105341;1259;71010;-50
2024/01/09 04:31:05;;;;;;;6.30;2.50;;;;;;;-11.88;46.23;101992.31;105459;1257;61636;-51
2024/01/09 04:33:33;;;;;;;8.70;2.90;;;;;;;-11.83;46.33;101991.47;105453;1257;60491;-51
2024/01/09 04:36:01;;;;;;;5.60;1.60;;;;;;;-11.80;46.17;101991.76;105932;1259;74497;-52
2024/01/09 04:38:28;;;;;;;5.00;1.40;;;;;;;-11.80;46.03;101988.38;105901;1253;68853;-50
2024/01/09 04:40:56;;;;;;;3.80;1.60;;;;;;;-11.81;45.71;101992.23;105696;1254;72655;-49
2024/01/09 04:43:23;;;;;;;7.00;2.20;;;;;;;-11.83;45.68;101988.42;105382;1257;60430;-50
2024/01/09 04:45:51;;;;;;;3.50;1.50;;;;;;;-11.87;45.70;101989.80;105351;1257;60322;-53
2024/01/09 04:48:19;;;;;;;5.70;1.90;;;;;;;-11.89;45.76;101983.12;105430;1258;73864;-50
2024/01/09 04:50:46;;;;;;;6.70;1.10;;;;;;;-11.89;45.83;101981.27;105250;1254;70305;-50
2024/01/09 04:53:14;;;;;;;6.40;2.00;;;;;;;-11.88;45.80;101984.17;105402;1254;72692;-49
2024/01/09 04:55:42;;;;;;;11.00;1.40;;;;;;;-11.86;45.91;101986.61;105460;1254;62271;-49
2024/01/09 04:58:09;;;;;;;6.40;1.80;;;;;;;-11.86;45.88;101985.42;105327;1254;60581;-50
2024/01/09 05:00:37;;;;;;;5.00;1.90;;;;;;;-11.86;45.87;101984.25;105585;1254;73868;-49
2024/01/09 05:03:05;;;;;;;8.30;2.10;;;;;;;-11.86;45.88;101985.94;105303;1254;69923;-50
2024/01/09 05:05:33;;;;;;;6.20;1.10;;;;;;;-11.84;46.04;101982.98;105757;1259;70607;-49
2024/01/09 05:08:00;;;;;;;10.30;2.90;;;;;;;-11.82;46.13;101984.91;105302;1256;60524;-50
2024/01/09 05:10:30;;;;;;;4.00;1.80;;;;;;;-11.80;46.19;101987.33;105349;1253;61449;-49
2024/01/09 05:12:58;;;;;;;5.40;1.70;;;;;;;-11.81;46.19;101986.46;105766;1254;72868;-50
2024/01/09 05:15:26;;;;;;;9.30;1.70;;;;;;;-11.82;46.24;101985.77;105271;1260;70260;-51
2024/01/09 05:17:53;;;;;;;7.00;2.00;;;;;;;-11.81;46.33;101986.11;105829;1254;72661;-50
2024/01/09 05:20:21;;;;;;;7.20;2.00;;;;;;;-11.82;46.31;101985.91;105907;1254;60450;-52
2024/01/09 05:22:50;;;;;;;8.50;1.90;;;;;;;-11.83;46.39;101986.38;105977;1253;60495;-50
2024/01/09 05:25:18;;;;;;;7.00;1.70;;;;;;;-11.86;46.19;101988.65;105265;1254;73852;-50
2024/01/09 05:27:45;;;;;;;15.60;2.90;;;;;;;-11.91;46.30;101986.11;105248;1259;70257;-50
2024/01/09 05:30:13;;;;;;;10.10;2.50;;;;;;;-11.92;46.48;101985.58;105270;1259;72687;-51
2024/01/09 05:32:41;;;;;;;6.50;1.10;;;;;;;-11.93;46.50;101987.21;105385;1254;62230;-51
2024/01/09 05:35:09;;;;;;;5.20;1.70;;;;;;;-11.93;46.59;101992.29;105346;1253;60524;-50
2024/01/09 05:37:37;;;;;;;6.60;1.70;;;;;;;-11.94;46.80;101987.70;105280;1258;73917;-50
2024/01/09 05:40:06;;;;;;;5.60;2.80;;;;;;;-11.92;46.87;101983.21;105203;1253;70273;-51
2024/01/09 05:42:33;;;;;;;4.60;1.10;;;;;;;-11.89;46.97;101978.89;105721;1253;73628;-58
2024/01/09 05:45:01;;;;;;;3.20;0.90;;;;;;;-11.82;46.92;101988.63;105297;1254;61268;-58
2024/01/09 05:47:28;;;;;;;6.30;1.10;;;;;;;-11.78;46.79;101990.46;105684;1259;60541;-58
2024/01/09 05:49:56;;;;;;;4.40;1.40;;;;;;;-11.75;46.85;101994.96;105813;1256;72918;-57
2024/01/09 05:52:24;;;;;;;10.40;3.30;;;;;;;-11.70;46.80;102001.59;105243;1254;69051;-49
2024/01/09 05:54:51;;;;;;;7.80;1.40;;;;;;;-11.71;46.61;102004.96;105255;1259;72440;-51
2024/01/09 05:57:19;;;;;;;5.40;1.90;;;;;;;-11.73;46.58;102011.95;105323;1259;60507;-50
2024/01/09 05:59:46;;;;;;;5.60;1.50;;;;;;;-11.72;46.53;102016.06;105227;1254;60393;-49
2024/01/09 06:02:14;;;;;;;9.80;1.30;;;;;;;-11.66;46.59;102011.91;105048;1259;73860;-53
2024/01/09 06:04:42;;;;;;;2.00;0.50;;;;;;;-11.59;46.58;102013.02;105127;1259;68835;-52
2024/01/09 06:07:09;;;;;;;5.70;1.30;;;;;;;-11.52;46.58;102009.88;107943;1256;72450;-52
2024/01/09 06:09:37;;;;;;;5.70;1.20;;;;;;;-11.47;46.48;102007.66;106281;1255;62040;-52
2024/01/09 06:12:05;;;;;;;3.90;1.10;;;;;;;-11.45;46.55;102002.68;105248;1253;60534;-51
2024/01/09 06:14:32;;;;;;;4.60;1.40;;;;;;;-11.38;46.65;102001.39;109132;1253;73849;-53
2024/01/09 06:17:00;;;;;;;4.00;0.70;;;;;;;-11.27;46.63;102005.52;109088;1253;69931;-53
2024/01/09 06:19:27;;;;;;;11.40;2.60;;;;;;;-11.17;46.54;102006.89;109131;1254;72651;-52
2024/01/09 06:21:55;;;;;;;9.90;2.40;;;;;;;-11.07;46.35;102007.75;109010;1257;60357;-53
2024/01/09 06:24:22;;;;;;;9.40;2.70;;;;;;;-10.99;46.15;102008.70;109213;1252;59991;-54
2024/01/09 06:26:50;;;;;;;7.40;2.60;;;;;;;-10.93;46.06;102009.55;109247;1254;73826;-53
2024/01/09 06:29:17;;;;;;;3.10;1.00;;;;;;;-10.87;45.88;102013.34;109286;1253;71021;-54
2024/01/09 06:31:45;;;;;;;4.30;1.60;;;;;;;-10.79;45.68;102015.64;105471;1254;72397;-54
2024/01/09 06:34:12;;;;;;;8.00;1.80;;;;;;;-10.73;45.46;102018.40;106231;1253;61657;-51
2024/01/09 06:36:42;;;;;;;11.40;3.40;;;;;;;-10.70;45.08;102013.06;105405;1257;60436;-54
2024/01/09 06:39:09;;;;;;;15.30;1.80;;;;;;;-10.70;45.06;102014.77;105283;1252;249155;-51
2024/01/09 06:43:14;;;;;;;7.10;2.00;;;;;;;-11.04;45.80;102015.64;102179;1291;600279;-49
2024/01/09 06:45:43;;;;;;;9.80;1.80;;;;;;;-10.78;45.34;102017.73;104365;1267;60535;-51
2024/01/09 06:48:11;;;;;;;4.30;1.90;;;;;;;-10.80;45.10;102019.67;104486;1270;60045;-53
2024/01/09 06:50:39;;;;;;;5.90;2.10;;;;;;;-10.83;45.03;102021.60;104404;1266;71629;-53
2024/01/09 06:53:06;;;;;;;10.20;1.80;;;;;;;-10.74;45.16;102025.80;104661;1271;70699;-53
2024/01/09 06:55:34;;;;;;;8.70;2.30;;;;;;;-10.66;45.26;102025.91;104805;1273;72644;-51
2024/01/09 06:58:02;;;;;;;9.10;1.90;;;;;;;-10.57;45.19;102029.27;104506;1264;252396;-52
2024/01/09 07:00:30;;;;;;;5.20;1.70;;;;;;;-10.46;45.21;102033.68;105107;1266;59218;-52
2024/01/09 07:02:58;;;;;;;6.30;1.10;;;;;;;-10.36;45.14;102030.95;104612;1263;72247;-51
2024/01/09 07:05:26;;;;;;;4.90;0.90;;;;;;;-10.26;45.17;102032.27;105054;1263;68699;-52
2024/01/09 07:07:53;;;;;;;8.90;2.30;;;;;;;-10.16;44.86;102039.02;105251;1260;71431;-52
2024/01/09 07:10:21;;;;;;;5.90;2.20;;;;;;;-10.10;44.86;102033.95;105233;1257;61647;-56
2024/01/09 07:12:49;;;;;;;6.90;1.50;;;;;;;-10.06;44.71;102035.27;105266;1254;60610;-53
2024/01/09 07:15:16;;;;;;;5.40;1.40;;;;;;;-10.04;44.68;102046.02;105300;1254;73104;-53
2024/01/09 07:17:45;;;;;;;8.20;1.80;;;;;;;-10.02;44.85;102043.36;106030;1257;69594;-55
2024/01/09 07:20:14;;;;;;;5.00;1.50;;;;;;;-9.97;44.80;102043.70;105268;1254;72992;-54
2024/01/09 07:22:42;;;;;;;9.10;3.60;;;;;;;-9.88;44.85;102039.02;105167;1254;61667;-53
2024/01/09 07:25:14;;;;;;;4.30;1.40;;;;;;;-9.73;45.03;102034.06;105073;1261;59494;-53
2024/01/09 07:27:42;;;;;;;5.90;1.50;;;;;;;-9.57;44.80;102030.45;105262;1260;71701;-54
2024/01/09 07:30:10;;;;;;;5.80;1.60;;;;;;;-9.46;44.76;102031.28;105015;1255;70240;-52
2024/01/09 07:32:38;;;;;;;7.20;2.40;;;;;;;-9.31;44.98;102032.38;105278;1255;72434;-51
2024/01/09 07:35:06;;;;;;;11.90;3.10;;;;;;;-9.16;45.00;102029.91;104900;1262;59706;-55
2024/01/09 07:37:34;;;;;;;8.60;3.80;;;;;;;-9.03;44.99;102035.36;105522;1254;60519;-52
2024/01/09 07:40:03;;;;;;;23.70;4.60;;;;;;;-8.90;45.05;102032.12;105615;1254;71753;-55
2024/01/09 07:42:31;;;;;;;9.30;3.30;;;;;;;-8.71;45.14;102034.82;105689;1255;70645;-55
2024/01/09 07:45:11;;;;;;;9.90;3.20;;;;;;;-8.49;45.12;102040.30;105302;1254;71516;-56
2024/01/09 07:47:38;;;;;;;9.90;3.00;;;;;;;-8.29;45.16;102039.75;105298;1260;59676;-54
2024/01/09 07:50:08;;;;;;;4.80;1.80;;;;;;;-8.07;44.92;102043.17;105481;1257;60061;-54
2024/01/09 07:52:35;;;;;;;13.40;4.60;;;;;;;-7.87;44.90;102044.65;105438;1254;73077;-55
2024/01/09 07:55:04;;;;;;;10.30;3.80;;;;;;;-7.72;44.66;102049.77;105151;1257;70099;-53
2024/01/09 07:57:33;;;;;;;6.30;2.20;;;;;;;-7.62;44.64;102048.77;105507;1262;72704;-54
2024/01/09 08:00:01;;;;;;;9.10;2.50;;;;;;;-7.54;44.77;102049.63;105562;1257;61063;-52
2024/01/09 08:02:37;;;;;;;6.30;2.40;;;;;;;-7.46;44.91;102050.30;105464;1261;59564;-54
2024/01/09 08:05:05;;;;;;;5.80;2.30;;;;;;;-7.39;44.89;102057.09;105180;1254;72241;-55
2024/01/09 08:07:33;;;;;;;8.30;1.90;;;;;;;-7.31;45.03;102056.41;105477;1262;68775;-55
2024/01/09 08:10:01;;;;;;;4.70;1.70;;;;;;;-7.26;45.03;102058.92;105199;1257;71320;-53
2024/01/09 08:12:28;;;;;;;4.10;1.40;;;;;;;-7.22;44.96;102059.15;105162;1256;60960;-51
2024/01/09 08:14:56;;;;;;;7.80;2.50;;;;;;;-7.19;45.20;102054.60;105647;1259;60012;-55
2024/01/09 08:17:24;;;;;;;6.70;2.70;;;;;;;-7.10;45.30;102059.38;105180;1254;71928;-54
2024/01/09 08:19:52;;;;;;;10.10;3.00;;;;;;;-7.02;45.44;102060.91;105132;1262;69350;-54
2024/01/09 08:22:19;;;;;;;5.70;1.90;;;;;;;-6.93;45.65;102063.30;105913;1256;71185;-54
2024/01/09 08:24:47;;;;;;;4.30;1.40;;;;;;;-6.80;45.76;102060.83;105182;1257;61005;-55
2024/01/09 08:27:15;;;;;;;7.30;2.50;;;;;;;-6.68;45.89;102066.14;105214;1260;60016;-55
2024/01/09 08:29:43;;;;;;;7.70;2.70;;;;;;;-6.62;46.03;102068.64;105023;1261;73532;-53
2024/01/09 08:32:15;;;;;;;10.80;3.90;;;;;;;-6.51;46.46;102072.44;108442;1256;71606;-55
2024/01/09 08:34:43;;;;;;;8.30;4.30;;;;;;;-6.39;46.62;102076.55;105289;1254;71064;-57
2024/01/09 08:37:11;;;;;;;10.80;4.00;;;;;;;-6.30;47.13;102075.35;105050;1263;59984;-55
2024/01/09 08:39:39;;;;;;;9.70;3.00;;;;;;;-6.23;47.59;102076.31;105172;1259;60385;-54
2024/01/09 08:42:06;;;;;;;9.10;3.30;;;;;;;-6.17;47.96;102080.02;105328;1260;73463;-53
2024/01/09 08:44:34;;;;;;;9.00;3.90;;;;;;;-6.11;48.68;102081.30;105127;1254;72549;-56
2024/01/09 08:47:02;;;;;;;12.60;3.10;;;;;;;-6.06;49.03;102080.86;109077;1254;71567;-55
2024/01/09 08:49:29;;;;;;;14.80;5.60;;;;;;;-5.99;48.96;102081.30;108940;1260;61821;-55
2024/01/09 08:51:57;;;;;;;8.30;3.10;;;;;;;-5.90;49.12;102080.56;109061;1255;59893;-55
2024/01/09 08:54:24;;;;;;;9.70;2.60;;;;;;;-5.85;49.21;102077.91;109014;1257;72869;-55
2024/01/09 08:56:52;;;;;;;9.60;2.10;;;;;;;-5.86;49.38;102073.96;108992;1257;68589;-50
2024/01/09 08:59:19;;;;;;;10.20;5.10;;;;;;;-5.92;49.73;102069.60;109072;1254;75234;-60
2024/01/09 09:01:47;;;;;;;9.60;3.40;;;;;;;-5.90;50.20;102067.05;107603;1257;61034;-57
2024/01/09 09:04:15;;;;;;;11.80;4.70;;;;;;;-5.82;50.60;102062.06;105052;1259;59665;-55
2024/01/09 09:06:43;;;;;;;10.00;5.10;;;;;;;-5.75;50.72;102066.42;105037;1254;73627;-54
2024/01/09 09:09:12;;;;;;;13.00;3.40;;;;;;;-5.67;50.98;102067.73;105245;1262;69276;-55
2024/01/09 09:11:40;;;;;;;10.20;2.40;;;;;;;-5.60;51.19;102072.45;105383;1257;72734;-55
2024/01/09 09:14:08;;;;;;;9.90;3.40;;;;;;;-5.55;51.14;102074.91;105576;1257;62905;-56
2024/01/09 09:16:36;;;;;;;9.00;3.40;;;;;;;-5.54;51.44;102078.87;105182;1254;59682;-55
2024/01/09 09:19:05;;;;;;;10.70;4.30;;;;;;;-5.47;51.64;102077.24;105483;1256;72205;-56
2024/01/09 09:21:33;;;;;;;13.00;4.90;;;;;;;-5.39;51.86;102079.41;105510;1259;72000;-54
2024/01/09 09:24:01;;;;;;;8.80;3.30;;;;;;;-5.36;51.99;102081.66;105305;1254;72501;-55
2024/01/09 09:26:29;;;;;;;9.30;4.00;;;;;;;-5.32;52.13;102082.21;105142;1262;60591;-54
2024/01/09 09:28:57;;;;;;;7.40;4.00;;;;;;;-5.26;52.21;102079.57;105655;1260;59571;-54
2024/01/09 09:31:38;;;;;;;11.00;4.10;;;;;;;-5.21;52.17;102076.37;105026;1261;73900;-55
2024/01/09 09:34:06;;;;;;;10.20;4.10;;;;;;;-5.20;52.24;102078.63;105192;1261;68758;-55
2024/01/09 09:36:34;;;;;;;19.00;8.80;;;;;;;-5.18;52.30;102074.86;105529;1254;72426;-56
2024/01/09 09:39:02;;;;;;;12.00;4.00;;;;;;;-5.13;52.49;102072.19;105193;1259;59774;-55
2024/01/09 09:41:31;;;;;;;9.80;3.80;;;;;;;-5.06;52.44;102078.11;105195;1259;59904;-57
2024/01/09 09:43:59;;;;;;;7.80;2.30;;;;;;;-4.99;52.33;102080.22;105682;1262;73146;-57
2024/01/09 09:46:31;;;;;;;15.40;6.40;;;;;;;-5.03;52.18;102080.70;105050;1254;69916;-55
2024/01/09 09:48:59;;;;;;;7.40;3.00;;;;;;;-5.07;52.37;102077.25;105606;1259;75353;-54
2024/01/09 09:51:27;;;;;;;9.80;4.10;;;;;;;-5.11;52.53;102075.83;105203;1257;59908;-54
2024/01/09 09:53:55;;;;;;;11.60;4.70;;;;;;;-5.14;52.87;102073.22;105115;1262;60574;-54
2024/01/09 09:56:23;;;;;;;5.70;2.10;;;;;;;-5.07;53.14;102069.54;105210;1256;73171;-53
2024/01/09 09:58:50;;;;;;;10.50;4.10;;;;;;;-5.04;53.18;102070.94;105221;1257;70282;-53
2024/01/09 10:01:18;;;;;;;12.00;4.60;;;;;;;-5.01;53.51;102070.27;105243;1259;71862;-54
2024/01/09 10:04:32;;;;;;;7.40;2.30;;;;;;;-5.00;53.62;102063.45;105180;1262;60916;-55
2024/01/09 10:07:00;;;;;;;7.40;2.70;;;;;;;-4.93;53.91;102069.01;105176;1262;60548;-53
2024/01/09 10:09:34;;;;;;;11.80;5.40;;;;;;;-4.86;54.04;102061.71;105615;1254;73994;-54
2024/01/09 10:12:01;;;;;;;12.90;4.90;;;;;;;-4.83;54.16;102068.43;105493;1259;69002;-56
2024/01/09 10:14:29;;;;;;;9.00;4.50;;;;;;;-4.78;54.18;102068.65;105256;1255;71520;-56
2024/01/09 10:16:59;;;;;;;8.80;4.40;;;;;;;-4.75;54.11;102068.85;105232;1254;63066;-58
2024/01/09 10:19:29;;;;;;;11.70;3.00;;;;;;;-4.73;54.22;102068.02;105679;1254;59752;-57
2024/01/09 10:21:57;;;;;;;10.60;5.10;;;;;;;-4.66;54.41;102062.27;105224;1260;75136;-56
2024/01/09 10:24:25;;;;;;;10.90;5.30;;;;;;;-4.59;54.52;102058.41;105190;1263;69343;-56
2024/01/09 10:26:54;;;;;;;9.20;4.80;;;;;;;-4.56;54.33;102059.45;105206;1255;73575;-56
2024/01/09 10:29:22;;;;;;;9.50;4.30;;;;;;;-4.53;54.26;102057.94;105777;1260;59749;-57
2024/01/09 10:31:50;;;;;;;12.40;5.10;;;;;;;-4.51;54.45;102060.70;105246;1260;59990;-56
2024/01/09 10:34:18;;;;;;;11.80;3.90;;;;;;;-4.46;54.67;102055.42;105935;1254;71930;-57
2024/01/09 10:36:45;;;;;;;13.20;5.00;;;;;;;-4.43;54.70;102056.49;105239;1262;70954;-55
2024/01/09 10:39:13;;;;;;;8.30;3.50;;;;;;;-4.39;54.71;102056.86;105165;1261;74812;-55
2024/01/09 10:41:41;;;;;;;11.00;4.00;;;;;;;-4.33;54.79;102055.55;105742;1257;63070;-55
2024/01/09 10:44:08;;;;;;;15.60;6.80;;;;;;;-4.27;54.71;102053.89;105213;1262;62264;-57
2024/01/09 10:46:36;;;;;;;10.50;4.70;;;;;;;-4.22;54.62;102049.48;104954;1260;71853;-58
2024/01/09 10:49:03;;;;;;;13.20;5.00;;;;;;;-4.20;54.80;102047.59;104944;1264;69035;-57
2024/01/09 10:51:31;;;;;;;14.90;5.40;;;;;;;-4.33;55.09;102045.27;105083;1257;71500;-57
2024/01/09 10:53:59;;;;;;;9.60;4.50;;;;;;;-4.37;55.50;102048.15;105189;1263;61666;-54
2024/01/09 10:56:27;;;;;;;13.60;5.90;;;;;;;-4.30;55.51;102053.52;105729;1258;60469;-55
2024/01/09 10:58:54;;;;;;;10.30;3.40;;;;;;;-4.27;55.61;102059.36;105193;1260;72613;-55
2024/01/09 11:01:22;;;;;;;12.30;5.80;;;;;;;-4.22;55.46;102059.40;105871;1256;68902;-55
2024/01/09 11:03:50;;;;;;;8.00;3.90;;;;;;;-4.20;55.46;102059.42;105171;1260;71722;-55
2024/01/09 11:06:18;;;;;;;11.20;5.10;;;;;;;-4.18;55.49;102053.95;105148;1262;60441;-55
2024/01/09 11:08:49;;;;;;;12.30;4.30;;;;;;;-4.15;55.43;102051.91;105180;1258;60611;-55
2024/01/09 11:11:18;;;;;;;12.90;6.00;;;;;;;-4.12;55.39;102053.33;105276;1256;72827;-55
2024/01/09 11:13:47;;;;;;;15.00;6.60;;;;;;;-4.08;55.54;102050.95;105250;1261;70702;-55
2024/01/09 11:16:15;;;;;;;13.30;5.30;;;;;;;-4.06;55.55;102053.52;105295;1254;71795;-54